METAR Data
IDs: Format: Raw Decoded Include TAF

Data at: 1809 UTC 03 Jul 2020

METAR for:KFDY (Findlay Arpt, OH, US)
Text:KFDY 031753Z AUTO VRB06KT 10SM SCT065 33/16 A3001 RMK AO2 SLP150 T03280161 10344 20239 58006
Temperature: 32.8°C ( 91°F)
Dewpoint: 16.1°C ( 61°F) [RH = 37%]
Pressure (altimeter):30.01 inches Hg (1016.3 mb) [Sea level pressure: 1015.0 mb]
Winds:variable direction winds at 7 MPH (6 knots; 3.1 m/s)
Visibility:10 or more sm (16+ km)
Ceiling:at least 12,000 feet AGL
Clouds: scattered clouds at 6500 feet AGL
QC Flag:automated observation with no human augmentation